DXXX/LFW METAR and TAF weather

Enter ICAO airport designator
Station Type Date Time Source
DXXX METAR 2019/04/23 00:00 UTC NOAA

DXXX 230000Z 22009KT 9999 SCT014 29/26 Q1010 NOSIG


Station Type Date Time Source
DXXX Decoded METAR 2019/04/23 00:00 UTC NOAA

Lome, Togo (DXXX) 06-10N 001-15E 25M
Apr 22, 2019 - 08:00 PM EDT / 2019.04.23 0000 UTC
Wind: from the SW (220 degrees) at 10 MPH (9 KT):0
Visibility: greater than 7 mile(s):0
Sky conditions: partly cloudy
Temperature: 84 F (29 C)
Dew Point: 78 F (26 C)
Relative Humidity: 83%
Pressure (altimeter): 29.83 in. Hg (1010 hPa)
ob: DXXX 230000Z 22009KT 9999 SCT014 29/26 Q1010 NOSIG
cycle: 0

Station Type Date Time Source
DXXX TAF 2019/04/22 18:42 UTC NOAA

TAF DXXX 221700Z 2218/2324 20010KT 9999 FEW013
BECMG 2300/2302 26006KT
BECMG 2307/2309 20012KT

Example: see airport list